Time;durP1;ratioP1;P1;durP2;ratioP2;P2;SDS_P1;SDS_P2;PMS_P1;PMS_P2;Temp;Humidity;BMP_temperature;BMP_pressure;BME280_temperature;BME280_humidity;BME280_pressure;Samples;Min_cycle;Max_cycle;Signal;HPM_P1;HPM_P2
2022/04/11 00:00:27;;;;;;;;;;;11.20;60.40;;;;;;5073941;28;19994;-91
2022/04/11 00:02:53;;;;;;;;;;;11.20;60.40;;;;;;5091710;28;19946;-91
2022/04/11 00:05:19;;;;;;;;;;;11.20;60.40;;;;;;5073287;28;19924;-90
2022/04/11 00:07:44;;;;;;;;;;;11.20;60.50;;;;;;5053203;28;20439;-86
2022/04/11 00:10:10;;;;;;;;;;;11.20;60.60;;;;;;5063780;28;19916;-82
2022/04/11 00:12:37;;;;;;;;;;;11.20;60.70;;;;;;5090004;28;19920;-85
2022/04/11 00:15:06;;;;;;;;;;;11.10;60.70;;;;;;5085567;28;19930;-87
2022/04/11 00:17:33;;;;;;;;;;;11.10;60.80;;;;;;5069276;28;19915;-88
2022/04/11 00:19:58;;;;;;;;;;;11.10;60.90;;;;;;5076651;28;19917;-87
2022/04/11 00:22:24;;;;;;;;;;;11.10;61.00;;;;;;5061030;28;19927;-84
2022/04/11 00:24:50;;;;;;;;;;;11.10;61.10;;;;;;5069791;28;19916;-87
2022/04/11 00:27:16;;;;;;;;;;;11.10;61.10;;;;;;5060136;28;19920;-89
2022/04/11 00:29:42;;;;;;;;;;;11.10;61.20;;;;;;5044564;28;19920;-88
2022/04/11 00:32:08;;;;;;;;;;;11.10;61.30;;;;;;5054171;28;19942;-87
2022/04/11 00:34:34;;;;;;;;;;;11.00;61.30;;;;;;5072389;28;19920;-92
2022/04/11 00:36:59;;;;;;;;;;;11.00;61.40;;;;;;5046612;28;19920;-92
2022/04/11 00:39:25;;;;;;;;;;;11.00;61.50;;;;;;5061013;28;19975;-91
2022/04/11 00:41:51;;;;;;;;;;;11.00;61.50;;;;;;5041326;28;19962;-91
2022/04/11 00:44:17;;;;;;;;;;;11.00;61.60;;;;;;5050020;28;19923;-86
2022/04/11 00:46:43;;;;;;;;;;;11.00;61.60;;;;;;5033515;28;19920;-90
2022/04/11 00:49:09;;;;;;;;;;;11.00;61.70;;;;;;5035096;28;19917;-89
2022/04/11 00:51:35;;;;;;;;;;;11.00;61.80;;;;;;5041524;28;19924;-90
2022/04/11 00:54:01;;;;;;;;;;;11.00;61.90;;;;;;5050655;28;20437;-90
2022/04/11 00:56:29;;;;;;;;;;;11.00;62.00;;;;;;5034945;28;19908;-90
2022/04/11 00:58:56;;;;;;;;;;;10.90;62.10;;;;;;5029334;28;19943;-89
2022/04/11 01:01:22;;;;;;;;;;;10.90;62.30;;;;;;5038094;28;19962;-91
2022/04/11 01:03:48;;;;;;;;;;;10.90;62.30;;;;;;5050578;28;19928;-89
2022/04/11 01:06:14;;;;;;;;;;;10.90;62.40;;;;;;5034141;28;19936;-90
2022/04/11 01:08:40;;;;;;;;;;;10.90;62.40;;;;;;5033971;28;19923;-89
2022/04/11 01:11:06;;;;;;;;;;;10.90;62.50;;;;;;5049839;28;19986;-91
2022/04/11 01:13:32;;;;;;;;;;;10.90;62.50;;;;;;5050999;28;19916;-90
2022/04/11 01:16:00;;;;;;;;;;;10.90;62.60;;;;;;5080209;28;20065;-83
2022/04/11 01:18:27;;;;;;;;;;;10.90;62.60;;;;;;5084693;28;20404;-89
2022/04/11 01:20:53;;;;;;;;;;;10.90;62.70;;;;;;5083780;28;19912;-87
2022/04/11 01:23:19;;;;;;;;;;;10.90;62.70;;;;;;5048258;28;19920;-88
2022/04/11 01:25:50;;;;;;;;;;;10.90;62.90;;;;;;5059561;28;19938;-88
2022/04/11 01:28:16;;;;;;;;;;;10.80;62.90;;;;;;5049473;28;19920;-90
2022/04/11 01:30:42;;;;;;;;;;;10.80;63.50;;;;;;5079122;28;19942;-90
2022/04/11 01:33:22;;;;;;;;;;;10.80;62.90;;;;;;5098145;28;19986;-91
2022/04/11 01:35:49;;;;;;;;;;;10.80;62.90;;;;;;5082544;28;19912;-90
2022/04/11 01:38:15;;;;;;;;;;;10.80;62.90;;;;;;5076052;28;19927;-90
2022/04/11 01:40:48;;;;;;;;;;;10.80;63.00;;;;;;5074900;28;19920;-89
2022/04/11 01:43:13;;;;;;;;;;;10.80;63.10;;;;;;5074938;28;19916;-88
2022/04/11 01:45:39;;;;;;;;;;;10.80;63.10;;;;;;5072019;28;19964;-88
2022/04/11 01:48:06;;;;;;;;;;;10.80;63.10;;;;;;5054988;28;19995;-88
2022/04/11 01:50:32;;;;;;;;;;;10.70;63.20;;;;;;5071297;28;19912;-87
2022/04/11 01:53:06;;;;;;;;;;;10.80;63.30;;;;;;5068501;28;19916;-88
2022/04/11 01:55:32;;;;;;;;;;;10.80;63.30;;;;;;5069803;28;20448;-90
2022/04/11 01:57:58;;;;;;;;;;;10.70;63.40;;;;;;5071195;28;19954;-84
2022/04/11 02:00:24;;;;;;;;;;;10.70;63.50;;;;;;5077154;28;19923;-88
2022/04/11 02:02:50;;;;;;;;;;;10.70;63.50;;;;;;5040001;28;19912;-89
2022/04/11 02:05:16;;;;;;;;;;;10.70;63.60;;;;;;5053172;28;19935;-89
2022/04/11 02:07:42;;;;;;;;;;;10.70;63.70;;;;;;5052259;28;20011;-89
2022/04/11 02:10:09;;;;;;;;;;;10.70;64.40;;;;;;5025353;28;19970;-90
2022/04/11 02:12:35;;;;;;;;;;;10.70;63.80;;;;;;5053178;28;19916;-88
2022/04/11 02:15:01;;;;;;;;;;;10.70;63.90;;;;;;5078528;28;19996;-87
2022/04/11 02:17:26;;;;;;;;;;;10.70;64.00;;;;;;5050463;28;20426;-89
2022/04/11 02:19:52;;;;;;;;;;;10.70;64.10;;;;;;5049624;28;19924;-91
2022/04/11 02:22:18;;;;;;;;;;;10.60;64.10;;;;;;5066791;28;19980;-91
2022/04/11 02:24:44;;;;;;;;;;;10.70;64.20;;;;;;5067541;28;20444;-90
2022/04/11 02:27:10;;;;;;;;;;;10.60;64.20;;;;;;5053965;28;19912;-92
2022/04/11 02:29:36;;;;;;;;;;;10.70;64.30;;;;;;5046248;28;19920;-92
2022/04/11 02:32:02;;;;;;;;;;;10.60;64.30;;;;;;5042248;28;20005;-93
2022/04/11 02:34:29;;;;;;;;;;;10.60;64.30;;;;;;5038535;28;19917;-92
2022/04/11 02:36:55;;;;;;;;;;;10.60;64.30;;;;;;5023602;28;19920;-92
2022/04/11 02:39:21;;;;;;;;;;;10.60;64.40;;;;;;5036525;28;20287;-87
2022/04/11 02:41:48;;;;;;;;;;;10.60;64.40;;;;;;5050739;28;19967;-88
2022/04/11 02:44:14;;;;;;;;;;;10.60;64.30;;;;;;5034785;28;19916;-91
2022/04/11 02:46:42;;;;;;;;;;;10.60;64.40;;;;;;5066729;28;19920;-92
2022/04/11 02:49:09;;;;;;;;;;;10.60;64.30;;;;;;5024451;28;19916;-91
2022/04/11 02:51:50;;;;;;;;;;;10.60;64.30;;;;;;5069805;28;19977;-91
2022/04/11 02:54:17;;;;;;;;;;;10.60;64.40;;;;;;5068401;28;19963;-86
2022/04/11 02:56:45;;;;;;;;;;;10.50;64.40;;;;;;5080791;28;19908;-91
2022/04/11 02:59:11;;;;;;;;;;;10.50;64.40;;;;;;5050922;28;19931;-89
2022/04/11 03:01:42;;;;;;;;;;;10.50;64.40;;;;;;5070132;28;19916;-89
2022/04/11 03:04:10;;;;;;;;;;;10.50;64.40;;;;;;5047152;28;19942;-89
2022/04/11 03:06:50;;;;;;;;;;;10.50;64.40;;;;;;5060241;28;19995;-86
2022/04/11 03:09:16;;;;;;;;;;;10.50;64.40;;;;;;5078225;28;19912;-88
2022/04/11 03:11:41;;;;;;;;;;;10.50;64.60;;;;;;5080809;28;19988;-85
2022/04/11 03:14:07;;;;;;;;;;;10.50;65.10;;;;;;5084618;28;19920;-88
2022/04/11 03:16:35;;;;;;;;;;;10.50;64.60;;;;;;5091719;28;19920;-89
2022/04/11 03:19:01;;;;;;;;;;;10.50;64.60;;;;;;5050608;28;19928;-90
2022/04/11 03:21:27;;;;;;;;;;;10.50;64.60;;;;;;5050302;28;19923;-91
2022/04/11 03:24:02;;;;;;;;;;;10.40;64.60;;;;;;5057583;28;19916;-91
2022/04/11 03:26:28;;;;;;;;;;;10.50;64.70;;;;;;5059000;28;19912;-89
2022/04/11 03:28:54;;;;;;;;;;;10.50;64.70;;;;;;5067849;28;19922;-89
2022/04/11 03:31:20;;;;;;;;;;;10.50;65.30;;;;;;5050028;28;19920;-86
2022/04/11 03:33:46;;;;;;;;;;;10.50;64.80;;;;;;5050872;28;19962;-89
2022/04/11 03:36:12;;;;;;;;;;;10.50;64.90;;;;;;5033698;28;19917;-89
2022/04/11 03:38:38;;;;;;;;;;;10.50;64.90;;;;;;5066301;28;19959;-81
2022/04/11 03:41:05;;;;;;;;;;;10.50;64.90;;;;;;5065465;28;19917;-89
2022/04/11 03:43:31;;;;;;;;;;;10.50;65.00;;;;;;5051555;28;20376;-88
2022/04/11 03:45:57;;;;;;;;;;;10.50;65.00;;;;;;5049103;28;20563;-82
2022/04/11 03:48:22;;;;;;;;;;;10.50;65.00;;;;;;5049219;28;19916;-87
2022/04/11 03:50:48;;;;;;;;;;;10.50;65.00;;;;;;5064888;28;20310;-86
2022/04/11 03:53:17;;;;;;;;;;;10.40;64.90;;;;;;5049955;28;19917;-85
2022/04/11 03:55:46;;;;;;;;;;;10.50;65.00;;;;;;5048864;28;19923;-86
2022/04/11 03:58:12;;;;;;;;;;;10.40;65.00;;;;;;5050920;28;20266;-86
2022/04/11 04:00:41;;;;;;;;;;;10.50;65.00;;;;;;5054852;28;20110;-86
2022/04/11 04:03:23;;;;;;;;;;;10.40;64.90;;;;;;5043103;28;20003;-84
2022/04/11 04:05:55;;;;;;;;;;;10.50;65.00;;;;;;5057349;28;19919;-84
2022/04/11 04:08:26;;;;;;;;;;;10.40;65.60;;;;;;5048738;28;19916;-82
2022/04/11 04:11:01;;;;;;;;;;;10.40;65.00;;;;;;5053611;28;19974;-81
2022/04/11 04:13:28;;;;;;;;;;;10.40;64.90;;;;;;5053667;28;20414;-82
2022/04/11 04:15:54;;;;;;;;;;;10.50;64.90;;;;;;5044071;28;19921;-83
2022/04/11 04:18:22;;;;;;;;;;;10.50;65.00;;;;;;5043067;28;19925;-84
2022/04/11 04:20:48;;;;;;;;;;;10.50;64.90;;;;;;5035186;28;19963;-83
2022/04/11 04:23:16;;;;;;;;;;;10.50;64.90;;;;;;5043983;28;19917;-82
2022/04/11 04:25:42;;;;;;;;;;;10.50;64.90;;;;;;5043351;28;19917;-85
2022/04/11 04:28:09;;;;;;;;;;;10.50;64.90;;;;;;5018036;28;20020;-80
2022/04/11 04:30:36;;;;;;;;;;;10.50;65.00;;;;;;5043082;28;20055;-79
2022/04/11 04:33:02;;;;;;;;;;;10.50;64.90;;;;;;5043687;28;19913;-81
2022/04/11 04:35:28;;;;;;;;;;;10.50;64.90;;;;;;5018027;28;19916;-78
2022/04/11 04:37:58;;;;;;;;;;;10.50;64.80;;;;;;5055202;28;19922;-77
2022/04/11 04:40:27;;;;;;;;;;;10.50;64.70;;;;;;5043255;28;19917;-81
2022/04/11 04:42:54;;;;;;;;;;;10.50;64.70;;;;;;5042736;28;20307;-78
2022/04/11 04:45:20;;;;;;;;;;;10.50;64.80;;;;;;5033492;28;20275;-78
2022/04/11 04:48:02;;;;;;;;;;;10.50;64.80;;;;;;5042181;28;19931;-78
2022/04/11 04:50:30;;;;;;;;;;;10.50;64.90;;;;;;5042157;28;20376;-79
2022/04/11 04:52:57;;;;;;;;;;;10.50;64.70;;;;;;5025772;28;19921;-79
2022/04/11 04:55:24;;;;;;;;;;;10.50;64.60;;;;;;5025801;28;19924;-81
2022/04/11 04:57:50;;;;;;;;;;;10.50;64.70;;;;;;5028021;28;20336;-80
2022/04/11 05:00:16;;;;;;;;;;;10.50;64.70;;;;;;5042824;28;19998;-81
2022/04/11 05:02:45;;;;;;;;;;;10.40;64.70;;;;;;5035127;28;19970;-79
2022/04/11 05:05:15;;;;;;;;;;;10.40;64.80;;;;;;5026592;28;20417;-81
2022/04/11 05:07:42;;;;;;;;;;;10.40;64.80;;;;;;5034381;28;19916;-86
2022/04/11 05:10:09;;;;;;;;;;;10.40;64.90;;;;;;5027177;28;19924;-88
2022/04/11 05:12:42;;;;;;;;;;;10.40;65.10;;;;;;5043836;28;19917;-84
2022/04/11 05:15:09;;;;;;;;;;;10.40;65.30;;;;;;5050401;28;19917;-87
2022/04/11 05:17:35;;;;;;;;;;;10.40;65.40;;;;;;5046317;28;19912;-85
2022/04/11 05:20:05;;;;;;;;;;;10.50;65.60;;;;;;5036278;28;19920;-83
2022/04/11 05:22:33;;;;;;;;;;;10.50;65.80;;;;;;5045968;28;20481;-84
2022/04/11 05:24:59;;;;;;;;;;;10.50;65.70;;;;;;5061140;28;19925;-80
2022/04/11 05:27:25;;;;;;;;;;;10.50;65.90;;;;;;5046268;28;20397;-80
2022/04/11 05:29:51;;;;;;;;;;;10.60;66.20;;;;;;5061508;28;20417;-82
2022/04/11 05:32:17;;;;;;;;;;;10.60;66.30;;;;;;5045004;28;20579;-79
2022/04/11 05:34:43;;;;;;;;;;;10.60;66.40;;;;;;5045653;28;19923;-81
2022/04/11 05:37:11;;;;;;;;;;;10.70;66.60;;;;;;5052690;28;19917;-82
2022/04/11 05:39:36;;;;;;;;;;;10.70;66.60;;;;;;5044995;28;19939;-81
2022/04/11 05:42:03;;;;;;;;;;;10.70;66.80;;;;;;5061774;28;20074;-81
2022/04/11 05:44:29;;;;;;;;;;;10.70;66.80;;;;;;5044847;28;19908;-82
2022/04/11 05:46:54;;;;;;;;;;;10.70;66.80;;;;;;5061586;28;20438;-80
2022/04/11 05:49:30;;;;;;;;;;;10.70;66.80;;;;;;5035658;28;19921;-78
2022/04/11 05:51:58;;;;;;;;;;;10.80;66.80;;;;;;5061077;28;19921;-80
2022/04/11 05:54:24;;;;;;;;;;;10.80;66.80;;;;;;5052018;28;20267;-80
2022/04/11 05:56:50;;;;;;;;;;;10.80;66.80;;;;;;5046634;28;19923;-80
2022/04/11 05:59:16;;;;;;;;;;;10.70;66.70;;;;;;5051130;28;19921;-82
2022/04/11 06:01:42;;;;;;;;;;;10.70;66.60;;;;;;5044044;28;19997;-81
2022/04/11 06:04:09;;;;;;;;;;;10.70;66.50;;;;;;5044357;28;19963;-80
2022/04/11 06:06:36;;;;;;;;;;;10.70;66.40;;;;;;5052800;28;19916;-78
2022/04/11 06:09:03;;;;;;;;;;;10.70;66.70;;;;;;5052991;28;19912;-78
2022/04/11 06:11:29;;;;;;;;;;;10.60;67.60;;;;;;5060438;28;19920;-80
2022/04/11 06:13:55;;;;;;;;;;;10.50;67.30;;;;;;5051738;28;19956;-79
2022/04/11 06:16:21;;;;;;;;;;;10.40;67.40;;;;;;5043737;28;20414;-76
2022/04/11 06:18:47;;;;;;;;;;;10.40;67.60;;;;;;5051421;28;19925;-78
2022/04/11 06:21:13;;;;;;;;;;;10.40;67.80;;;;;;5044389;28;20376;-79
2022/04/11 06:23:39;;;;;;;;;;;10.30;67.70;;;;;;5052188;28;19919;-77
2022/04/11 06:26:05;;;;;;;;;;;10.30;68.00;;;;;;5044428;28;20338;-78
2022/04/11 06:28:36;;;;;;;5.93;2.28;;;10.10;68.30;;;;;;5051789;28;20133;-79
2022/04/11 06:31:03;;;;;;;4.43;2.72;;;10.10;68.50;;;;;;5050954;28;20136;-80
2022/04/11 06:33:30;;;;;;;3.97;2.20;;;10.10;68.90;;;;;;5043287;28;20028;-77
2022/04/11 06:35:56;;;;;;;;;;;10.10;68.90;;;;;;5065077;28;20213;-79
2022/04/11 06:38:23;;;;;;;;;;;10.10;69.00;;;;;;5042428;28;20325;-79
2022/04/11 06:40:49;;;;;;;;;;;10.10;69.20;;;;;;5055756;28;20000;-80
2022/04/11 06:43:15;;;;;;;;;;;10.10;69.30;;;;;;5048133;28;19923;-80
2022/04/11 06:45:59;;;;;;;;;;;10.10;69.30;;;;;;5054355;28;19927;-79
2022/04/11 06:48:25;;;;;;;5.82;3.10;;;10.10;69.30;;;;;;5064369;28;20335;-81
2022/04/11 06:50:53;;;;;;;3.95;2.30;;;10.10;69.30;;;;;;5044399;28;20367;-79
2022/04/11 06:53:19;;;;;;;3.75;2.33;;;10.10;69.20;;;;;;5048452;28;20600;-78
2022/04/11 06:55:47;;;;;;;2.97;2.00;;;10.20;68.90;;;;;;5050165;28;20072;-79
2022/04/11 06:58:17;;;;;;;3.58;2.08;;;10.20;68.50;;;;;;5051795;28;20134;-80
2022/04/11 07:00:44;;;;;;;3.42;2.00;;;10.20;68.40;;;;;;5068665;28;20064;-79
2022/04/11 07:03:10;;;;;;;3.40;2.03;;;10.20;68.20;;;;;;5052321;28;20091;-80
2022/04/11 07:05:37;;;;;;;5.05;1.95;;;10.20;68.20;;;;;;5052327;28;20033;-79
2022/04/11 07:08:04;;;;;;;5.15;2.65;;;10.20;68.20;;;;;;5053505;28;20037;-81
2022/04/11 07:10:31;;;;;;;5.38;2.60;;;10.20;68.30;;;;;;5052202;28;20063;-79
2022/04/11 07:12:58;;;;;;;3.72;2.10;;;10.20;68.70;;;;;;5050329;28;20494;-79
2022/04/11 07:15:25;;;;;;;3.45;2.30;;;10.20;68.90;;;;;;5062795;28;20572;-78
2022/04/11 07:17:51;;;;;;;3.77;2.40;;;10.20;69.30;;;;;;5072241;28;20508;-79
2022/04/11 07:20:17;;;;;;;3.70;2.15;;;10.20;69.70;;;;;;5066124;28;20514;-78
2022/04/11 07:22:43;;;;;;;;;;;10.20;69.90;;;;;;5049049;28;20128;-79
2022/04/11 07:25:09;;;;;;;;;;;10.20;70.00;;;;;;5067940;28;20004;-79
2022/04/11 07:27:35;;;;;;;;;;;10.20;70.10;;;;;;5049692;28;20007;-80
2022/04/11 07:30:01;;;;;;;4.27;2.00;;;10.20;70.20;;;;;;5066866;28;19912;-79
2022/04/11 07:32:27;;;;;;;2.85;1.80;;;10.10;70.50;;;;;;5066989;28;20028;-78
2022/04/11 07:34:56;;;;;;;;;;;10.10;70.60;;;;;;5048808;28;20643;-78
2022/04/11 07:37:22;;;;;;;;;;;10.10;70.60;;;;;;5067404;28;20370;-79
2022/04/11 07:39:47;;;;;;;5.90;2.90;;;10.10;70.60;;;;;;5067468;28;19920;-79
2022/04/11 07:42:13;;;;;;;5.07;2.90;;;10.10;70.70;;;;;;5067088;28;20052;-79
2022/04/11 07:44:39;;;;;;;;;;;10.10;71.00;;;;;;5067030;28;20414;-79
2022/04/11 07:47:05;;;;;;;;;;;10.10;71.00;;;;;;5066622;28;20395;-80
2022/04/11 07:49:31;;;;;;;2.70;2.40;;;10.10;71.10;;;;;;5066650;28;20394;-80
2022/04/11 07:51:57;;;;;;;2.47;1.85;;;10.10;71.20;;;;;;5067194;28;20037;-80
2022/04/11 07:54:23;;;;;;;3.50;2.40;;;10.10;71.20;;;;;;5067010;28;20510;-80
2022/04/11 07:56:48;;;;;;;5.40;2.75;;;10.10;71.20;;;;;;5067354;28;20079;-81
2022/04/11 07:59:15;;;;;;;2.95;2.30;;;10.20;71.20;;;;;;5066976;28;20032;-81
2022/04/11 08:01:41;;;;;;;3.65;2.33;;;10.20;71.30;;;;;;5066091;28;20230;-79
2022/04/11 08:04:07;;;;;;;4.30;2.58;;;10.20;71.20;;;;;;5044752;28;20049;-81
2022/04/11 08:06:33;;;;;;;4.13;2.47;;;10.20;71.20;;;;;;5048283;28;20037;-80
2022/04/11 08:08:59;;;;;;;5.55;2.90;;;10.20;71.20;;;;;;5063800;28;20588;-80
2022/04/11 08:11:25;;;;;;;7.78;2.90;;;10.20;71.10;;;;;;5043512;28;20068;-79
2022/04/11 08:13:51;;;;;;;5.93;2.60;;;10.20;71.10;;;;;;5066718;28;20044;-80
2022/04/11 08:16:17;;;;;;;4.32;3.10;;;10.20;71.10;;;;;;5066379;28;20620;-79
2022/04/11 08:18:43;;;;;;;5.60;2.85;;;10.20;71.10;;;;;;5066076;28;20048;-80
2022/04/11 08:21:09;;;;;;;5.38;3.25;;;10.20;71.00;;;;;;5048711;28;20123;-79
2022/04/11 08:23:35;;;;;;;3.40;3.10;;;10.20;71.00;;;;;;5066638;28;20037;-81
2022/04/11 08:26:01;;;;;;;4.53;3.50;;;10.20;71.00;;;;;;5066978;28;20503;-82
2022/04/11 08:28:27;;;;;;;5.25;3.42;;;10.20;71.00;;;;;;5063845;28;20583;-82
2022/04/11 08:30:53;;;;;;;5.95;3.45;;;10.20;70.80;;;;;;5039607;28;20033;-83
2022/04/11 08:33:19;;;;;;;4.45;3.58;;;10.20;70.80;;;;;;5065274;28;20178;-77
2022/04/11 08:35:45;;;;;;;5.97;3.40;;;10.20;70.80;;;;;;5066481;28;20102;-83
2022/04/11 08:38:11;;;;;;;5.20;3.45;;;10.20;70.80;;;;;;5047469;28;20082;-81
2022/04/11 08:40:37;;;;;;;3.42;2.90;;;10.10;70.70;;;;;;5065432;28;20120;-79
2022/04/11 08:43:03;;;;;;;3.80;3.35;;;10.10;70.60;;;;;;5047398;28;20036;-79
2022/04/11 08:45:30;;;;;;;4.55;2.40;;;10.10;70.60;;;;;;5030718;28;20059;-81
2022/04/11 08:47:58;;;;;;;3.45;2.53;;;10.00;70.50;;;;;;5066377;28;20154;-80
2022/04/11 08:50:26;;;;;;;2.80;2.20;;;10.10;70.40;;;;;;5055686;28;20395;-81
2022/04/11 08:52:54;;;;;;;5.07;2.50;;;10.00;70.10;;;;;;5065185;28;20056;-82
2022/04/11 08:55:21;;;;;;;;;;;10.10;70.80;;;;;;5065769;28;20457;-79
2022/04/11 08:57:47;;;;;;;;;;;10.00;70.10;;;;;;5064758;28;19916;-82
2022/04/11 09:00:14;;;;;;;;;;;10.00;70.00;;;;;;5046988;28;19912;-82
2022/04/11 09:02:42;;;;;;;;;;;10.00;70.00;;;;;;5065429;28;19916;-77
2022/04/11 09:05:08;;;;;;;;;;;10.00;70.00;;;;;;5063606;28;20029;-80
2022/04/11 09:07:50;;;;;;;;;;;10.00;69.80;;;;;;5066175;28;20493;-78
2022/04/11 09:10:26;;;;;;;;;;;10.00;69.70;;;;;;5066150;28;19916;-80
2022/04/11 09:12:52;;;;;;;;;;;10.00;69.60;;;;;;5066997;28;19920;-83
2022/04/11 09:15:19;;;;;;;;;;;10.00;69.60;;;;;;5044096;28;19924;-79
2022/04/11 09:17:45;;;;;;;;;;;10.00;69.70;;;;;;5046172;28;19979;-79
2022/04/11 09:20:15;;;;;;;;;;;10.00;69.60;;;;;;5047043;28;19928;-80
2022/04/11 09:22:41;;;;;;;;;;;10.00;69.60;;;;;;5046116;28;20310;-82
2022/04/11 09:25:17;;;;;;;;;;;10.10;69.60;;;;;;5045880;28;19944;-82
2022/04/11 09:27:43;;;;;;;;;;;10.10;69.60;;;;;;5046123;28;20359;-80
2022/04/11 09:30:31;;;;;;;;;;;10.00;69.50;;;;;;5044109;28;19962;-80
2022/04/11 09:32:56;;;;;;;;;;;10.00;69.50;;;;;;5046434;28;19951;-80
2022/04/11 09:35:23;;;;;;;;;;;10.00;69.60;;;;;;5043502;28;20017;-81
2022/04/11 09:38:08;;;;;;;;;;;10.00;69.60;;;;;;5045020;28;20314;-82
2022/04/11 09:40:44;;;;;;;;;;;10.00;69.70;;;;;;5042727;28;19916;-79
2022/04/11 09:43:11;;;;;;;;;;;10.00;69.70;;;;;;5045854;28;20003;-80
2022/04/11 09:45:44;;;;;;;;;;;10.00;69.80;;;;;;5045016;28;19916;-82
2022/04/11 09:48:10;;;;;;;;;;;10.00;69.90;;;;;;5044354;28;19952;-81
2022/04/11 09:50:35;;;;;;;;;;;10.00;70.00;;;;;;5044689;28;20431;-83
2022/04/11 09:53:09;;;;;;;;;;;10.00;70.00;;;;;;5043905;28;20331;-82
2022/04/11 09:55:35;;;;;;;;;;;10.10;70.10;;;;;;5046403;28;19923;-81
2022/04/11 09:58:02;;;;;;;;;;;10.10;70.20;;;;;;5046419;28;19956;-85
2022/04/11 10:00:29;;;;;;;;;;;10.10;70.20;;;;;;5061771;28;20007;-82
2022/04/11 10:02:57;;;;;;;;;;;10.10;70.20;;;;;;5045122;28;19918;-81
2022/04/11 10:05:24;;;;;;;;;;;10.10;70.30;;;;;;5038928;28;19916;-84
2022/04/11 10:07:53;;;;;;;;;;;10.10;70.20;;;;;;5045423;28;19924;-81
2022/04/11 10:10:20;;;;;;;;;;;10.10;70.20;;;;;;5044590;28;19921;-80
2022/04/11 10:12:46;;;;;;;;;;;10.10;70.20;;;;;;5045599;28;19917;-83
2022/04/11 10:15:13;;;;;;;;;;;10.10;70.20;;;;;;5044493;28;19920;-81
2022/04/11 10:17:39;;;;;;;;;;;10.10;70.10;;;;;;5044747;28;19916;-79
2022/04/11 10:20:07;;;;;;;;;;;10.10;70.00;;;;;;5045760;28;21323;-82
2022/04/11 10:22:38;;;;;;;;;;;10.10;69.90;;;;;;5044443;28;19921;-81
2022/04/11 10:25:06;;;;;;;;;;;10.10;69.90;;;;;;5044157;28;20031;-80
2022/04/11 10:27:33;;;;;;;;;;;10.10;70.00;;;;;;5045489;28;19921;-82
2022/04/11 10:29:59;;;;;;;;;;;10.00;70.00;;;;;;5060912;28;19985;-78
2022/04/11 10:32:26;;;;;;;;;;;10.10;70.10;;;;;;5060702;28;19917;-82
2022/04/11 10:35:02;;;;;;;;;;;10.10;70.10;;;;;;5043089;28;20009;-83
2022/04/11 10:37:29;;;;;;;;;;;10.10;70.00;;;;;;5045111;28;19928;-81
2022/04/11 10:40:14;;;;;;;;;;;10.10;69.90;;;;;;5044751;28;20307;-83
2022/04/11 10:43:00;;;;;;;;;;;10.10;70.00;;;;;;5075324;28;19988;-83
2022/04/11 10:45:29;;;;;;;;;;;10.10;70.00;;;;;;5047155;28;20485;-84
2022/04/11 10:47:55;;;;;;;;;;;10.10;70.00;;;;;;5077426;28;20536;-84
2022/04/11 10:50:22;;;;;;;;;;;10.10;70.00;;;;;;5044917;28;20126;-80
2022/04/11 10:52:53;;;;;;;;;;;10.10;70.20;;;;;;5042324;28;19960;-81
2022/04/11 10:55:20;;;;;;;;;;;10.10;70.20;;;;;;5044044;28;20004;-81
2022/04/11 10:57:53;;;;;;;3.00;2.70;;;10.10;70.20;;;;;;5044185;28;19921;-81
2022/04/11 11:00:24;;;;;;;3.00;2.70;;;10.10;70.30;;;;;;5041078;28;20045;-79
2022/04/11 11:02:53;;;;;;;2.88;2.58;;;10.10;70.20;;;;;;5044548;28;20040;-85
2022/04/11 11:05:30;;;;;;;3.85;2.45;;;10.10;70.20;;;;;;5044285;28;20037;-81
2022/04/11 11:08:11;;;;;;;4.05;2.75;;;10.20;70.20;;;;;;5044109;28;20546;-83
2022/04/11 11:10:42;;;;;;;3.83;2.55;;;10.20;70.10;;;;;;5043492;28;20032;-82
2022/04/11 11:13:30;;;;;;;3.03;2.67;;;10.20;70.10;;;;;;5038982;28;20048;-80
2022/04/11 11:16:01;;;;;;;5.93;3.45;;;10.20;70.20;;;;;;5044063;28;20040;-81
2022/04/11 11:18:51;;;;;;;3.07;2.50;;;10.10;70.10;;;;;;5044281;28;20045;-79
2022/04/11 11:21:17;;;;;;;2.72;2.30;;;10.10;70.30;;;;;;5041433;28;20099;-79
2022/04/11 11:24:04;;;;;;;3.42;2.47;;;10.10;70.20;;;;;;5046555;28;20499;-84
2022/04/11 11:26:45;;;;;;;2.80;2.58;;;10.10;70.40;;;;;;5048098;28;20110;-83
2022/04/11 11:29:15;;;;;;;;;;;10.10;70.50;;;;;;5049086;28;20095;-85
2022/04/11 11:31:41;;;;;;;;;;;10.10;70.50;;;;;;5048577;28;19925;-81
2022/04/11 11:34:11;;;;;;;3.10;2.70;;;10.10;70.60;;;;;;5048008;28;20457;-81
2022/04/11 11:36:38;;;;;;;4.28;3.22;;;10.10;70.60;;;;;;5047642;28;20044;-81
2022/04/11 11:39:18;;;;;;;4.32;2.83;;;10.20;70.60;;;;;;5046561;28;20041;-82
2022/04/11 11:41:51;;;;;;;3.58;2.78;;;10.20;70.50;;;;;;5048034;28;20033;-82
2022/04/11 11:44:18;;;;;;;5.65;3.53;;;10.20;70.50;;;;;;5047100;28;20065;-81
2022/04/11 11:46:53;;;;;;;3.83;2.55;;;10.20;70.60;;;;;;5062403;28;20037;-80
2022/04/11 11:49:20;;;;;;;3.25;2.80;;;10.10;70.70;;;;;;5061258;28;20037;-80
2022/04/11 11:51:48;;;;;;;3.63;3.10;;;10.10;70.80;;;;;;5047695;28;20055;-79
2022/04/11 11:54:14;;;;;;;3.22;2.78;;;10.10;70.80;;;;;;5046680;28;20033;-80
2022/04/11 11:56:45;;;;;;;3.35;3.05;;;10.10;70.80;;;;;;5046647;28;20064;-81
2022/04/11 11:59:14;;;;;;;3.53;3.05;;;10.20;70.80;;;;;;5046730;28;20049;-81
2022/04/11 12:04:18;;;;;;;4.03;3.03;;;10.20;70.80;;;;;;5046366;28;20037;-81
2022/04/11 12:04:35;;;;;;;3.38;2.75;;;10.10;70.70;;;;;;5046289;28;20040;-82
2022/04/11 12:07:01;;;;;;;7.18;2.80;;;10.30;74.00;;;;;;5053809;28;20039;-83
2022/04/11 12:09:35;;;;;;;4.05;3.13;;;10.40;73.40;;;;;;5053326;28;20411;-82
2022/04/11 12:12:04;;;;;;;4.07;3.22;;;10.40;72.40;;;;;;5046448;28;20025;-82
2022/04/11 12:14:31;;;;;;;5.10;3.60;;;10.50;71.90;;;;;;5045411;28;20487;-82
2022/04/11 12:17:00;;;;;;;5.47;3.17;;;10.50;71.50;;;;;;5046517;28;20044;-80
2022/04/11 12:19:37;;;;;;;5.47;3.35;;;10.50;71.30;;;;;;5046022;28;20538;-80
2022/04/11 12:22:11;;;;;;;3.55;3.20;;;10.40;71.10;;;;;;5047532;28;20071;-82
2022/04/11 12:24:37;;;;;;;4.78;3.97;;;10.40;71.20;;;;;;5042294;28;20037;-80
2022/04/11 12:27:03;;;;;;;4.82;3.55;;;10.40;71.20;;;;;;5046912;28;20044;-80
2022/04/11 12:29:38;;;;;;;4.82;3.67;;;10.40;71.20;;;;;;5046515;28;20033;-82
2022/04/11 12:32:12;;;;;;;4.35;3.70;;;10.40;71.20;;;;;;5046262;28;20072;-81
2022/04/11 12:34:39;;;;;;;4.90;3.40;;;10.40;71.20;;;;;;5081537;28;20029;-80
2022/04/11 12:37:12;;;;;;;5.88;3.53;;;10.30;71.20;;;;;;5050117;28;20288;-82
2022/04/11 12:39:56;;;;;;;5.63;3.40;;;10.30;71.10;;;;;;5033310;28;20081;-82
2022/04/11 12:42:24;;;;;;;5.43;3.65;;;10.30;71.10;;;;;;5045974;28;20095;-83
2022/04/11 12:45:05;;;;;;;6.28;3.42;;;10.30;71.10;;;;;;5061156;28;20036;-82
2022/04/11 12:47:32;;;;;;;4.03;3.60;;;10.30;71.20;;;;;;5046586;28;20032;-82
2022/04/11 12:49:58;;;;;;;4.38;3.45;;;10.20;71.20;;;;;;5045472;28;20040;-82
2022/04/11 12:52:29;;;;;;;4.60;3.55;;;10.20;71.20;;;;;;5045907;28;20041;-83
2022/04/11 12:55:03;;;;;;;5.93;4.00;;;10.30;71.20;;;;;;5046415;28;20045;-81
2022/04/11 12:57:34;;;;;;;5.80;3.80;;;10.30;71.30;;;;;;5045256;28;20445;-81
2022/04/11 13:00:17;;;;;;;5.97;3.60;;;10.30;71.30;;;;;;5045796;28;20035;-80
2022/04/11 13:02:43;;;;;;;5.30;3.75;;;10.20;71.20;;;;;;5046035;28;20040;-81
2022/04/11 13:05:13;;;;;;;5.45;3.90;;;10.30;71.20;;;;;;5045460;28;20591;-80
2022/04/11 13:07:40;;;;;;;5.43;4.10;;;10.20;71.20;;;;;;5045179;28;20039;-80
2022/04/11 13:10:06;;;;;;;4.47;3.60;;;10.20;71.20;;;;;;5045385;28;20510;-80
2022/04/11 13:12:33;;;;;;;5.95;4.07;;;10.20;71.20;;;;;;5045579;28;20529;-81
2022/04/11 13:14:59;;;;;;;6.82;4.15;;;10.20;71.30;;;;;;5043885;28;20045;-80
2022/04/11 13:20:10;;;;;;;5.03;4.30;;;10.20;71.40;;;;;;5044891;28;20041;-82
2022/04/11 13:22:37;;;;;;;7.15;4.68;;;10.20;71.40;;;;;;5043124;28;20124;-80
2022/04/11 13:25:04;;;;;;;6.15;3.95;;;10.10;71.30;;;;;;5045032;28;20576;-82
2022/04/11 13:27:29;;;;;;;6.10;3.83;;;10.10;71.30;;;;;;5045126;28;20040;-81
2022/04/11 13:29:55;;;;;;;5.82;4.13;;;10.10;71.20;;;;;;5060880;28;20467;-80
2022/04/11 13:32:24;;;;;;;7.78;4.10;;;10.10;71.40;;;;;;5045323;28;20052;-82
2022/04/11 13:34:51;;;;;;;5.60;4.00;;;10.00;71.40;;;;;;5043297;28;20033;-81
2022/04/11 13:37:17;;;;;;;11.80;4.45;;;10.00;71.40;;;;;;5044534;28;20037;-81
2022/04/11 13:39:43;;;;;;;;;;;10.00;71.50;;;;;;5045514;28;20587;-80
2022/04/11 13:42:09;;;;;;;4.97;3.83;;;10.00;71.70;;;;;;5045622;28;19917;-81
2022/04/11 13:44:35;;;;;;;5.90;3.70;;;10.00;71.80;;;;;;5060593;28;21698;-77
2022/04/11 13:47:01;;;;;;;7.28;3.20;;;10.00;71.80;;;;;;5044853;28;20052;-85
2022/04/11 13:49:27;;;;;;;4.40;3.30;;;10.00;71.90;;;;;;5046110;28;20500;-82
2022/04/11 13:51:53;;;;;;;;;;;9.90;72.00;;;;;;5046207;28;19921;-81